sensor_id;sensor_type;location;lat;lon;timestamp;P1;durP1;ratioP1;P2;durP2;ratioP2
68858;SDS011;55864;49.238;8.092;2024-03-23T00:55:14;11.40;;;5.65;;
68858;SDS011;55864;49.238;8.092;2024-03-23T00:57:15;11.75;;;6.03;;
68858;SDS011;55864;49.238;8.092;2024-03-23T00:59:15;12.85;;;5.80;;
68858;SDS011;55864;49.238;8.092;2024-03-23T01:01:16;12.18;;;5.95;;
68858;SDS011;55864;49.238;8.092;2024-03-23T01:03:16;12.82;;;5.93;;
68858;SDS011;55864;49.238;8.092;2024-03-23T01:05:17;12.23;;;5.32;;
68858;SDS011;55864;49.238;8.092;2024-03-23T01:07:18;12.60;;;5.97;;
68858;SDS011;55864;49.238;8.092;2024-03-23T01:09:18;10.95;;;5.60;;
68858;SDS011;55864;49.238;8.092;2024-03-23T01:11:20;11.48;;;5.85;;
68858;SDS011;55864;49.238;8.092;2024-03-23T01:13:20;12.18;;;5.47;;
68858;SDS011;55864;49.238;8.092;2024-03-23T01:15:21;16.00;;;6.82;;
68858;SDS011;55864;49.238;8.092;2024-03-23T01:17:21;11.38;;;6.15;;
68858;SDS011;55864;49.238;8.092;2024-03-23T01:19:22;13.88;;;6.03;;
68858;SDS011;55864;49.238;8.092;2024-03-23T01:21:23;11.38;;;5.65;;
68858;SDS011;55864;49.238;8.092;2024-03-23T01:23:23;13.60;;;5.88;;
68858;SDS011;55864;49.238;8.092;2024-03-23T01:25:24;15.48;;;6.90;;
68858;SDS011;55864;49.238;8.092;2024-03-23T01:27:25;13.23;;;6.35;;
68858;SDS011;55864;49.238;8.092;2024-03-23T01:29:26;15.27;;;6.50;;
68858;SDS011;55864;49.238;8.092;2024-03-23T01:31:26;12.90;;;6.57;;
68858;SDS011;55864;49.238;8.092;2024-03-23T01:33:27;13.10;;;6.03;;
68858;SDS011;55864;49.238;8.092;2024-03-23T01:35:28;12.57;;;6.13;;
68858;SDS011;55864;49.238;8.092;2024-03-23T01:37:28;12.23;;;6.68;;
68858;SDS011;55864;49.238;8.092;2024-03-23T01:39:29;13.80;;;6.68;;
68858;SDS011;55864;49.238;8.092;2024-03-23T01:41:29;13.07;;;6.82;;
68858;SDS011;55864;49.238;8.092;2024-03-23T01:43:31;13.82;;;6.63;;
68858;SDS011;55864;49.238;8.092;2024-03-23T01:45:32;13.32;;;6.65;;
68858;SDS011;55864;49.238;8.092;2024-03-23T01:47:32;12.10;;;6.20;;
68858;SDS011;55864;49.238;8.092;2024-03-23T01:49:33;14.43;;;6.55;;
68858;SDS011;55864;49.238;8.092;2024-03-23T01:51:33;15.27;;;6.82;;
68858;SDS011;55864;49.238;8.092;2024-03-23T01:53:35;12.77;;;6.70;;
68858;SDS011;55864;49.238;8.092;2024-03-23T01:55:35;15.13;;;7.30;;
68858;SDS011;55864;49.238;8.092;2024-03-23T01:57:39;13.70;;;6.55;;
68858;SDS011;55864;49.238;8.092;2024-03-23T01:59:41;13.45;;;6.70;;
68858;SDS011;55864;49.238;8.092;2024-03-23T02:01:44;12.15;;;6.60;;
68858;SDS011;55864;49.238;8.092;2024-03-23T02:03:45;12.48;;;6.55;;
68858;SDS011;55864;49.238;8.092;2024-03-23T02:05:45;14.27;;;7.10;;
68858;SDS011;55864;49.238;8.092;2024-03-23T02:07:46;18.83;;;8.65;;
68858;SDS011;55864;49.238;8.092;2024-03-23T02:09:46;16.17;;;7.25;;
68858;SDS011;55864;49.238;8.092;2024-03-23T02:11:47;14.18;;;7.50;;
68858;SDS011;55864;49.238;8.092;2024-03-23T02:13:47;15.60;;;7.30;;
68858;SDS011;55864;49.238;8.092;2024-03-23T02:15:49;12.98;;;7.18;;
68858;SDS011;55864;49.238;8.092;2024-03-23T02:17:50;13.93;;;7.40;;
68858;SDS011;55864;49.238;8.092;2024-03-23T02:19:50;13.68;;;7.15;;
68858;SDS011;55864;49.238;8.092;2024-03-23T02:21:51;18.55;;;7.90;;
68858;SDS011;55864;49.238;8.092;2024-03-23T02:23:53;14.30;;;7.30;;
68858;SDS011;55864;49.238;8.092;2024-03-23T02:25:53;15.90;;;8.00;;
68858;SDS011;55864;49.238;8.092;2024-03-23T02:27:54;16.90;;;8.50;;
68858;SDS011;55864;49.238;8.092;2024-03-23T02:29:54;16.80;;;8.48;;
68858;SDS011;55864;49.238;8.092;2024-03-23T02:31:55;16.13;;;8.70;;
68858;SDS011;55864;49.238;8.092;2024-03-23T02:33:55;15.32;;;8.40;;
68858;SDS011;55864;49.238;8.092;2024-03-23T02:35:56;19.23;;;8.57;;
68858;SDS011;55864;49.238;8.092;2024-03-23T02:37:57;16.63;;;8.57;;
68858;SDS011;55864;49.238;8.092;2024-03-23T02:39:58;18.67;;;8.55;;
68858;SDS011;55864;49.238;8.092;2024-03-23T02:42:02;16.40;;;7.78;;
68858;SDS011;55864;49.238;8.092;2024-03-23T02:44:02;18.20;;;8.40;;
68858;SDS011;55864;49.238;8.092;2024-03-23T02:46:03;18.75;;;8.23;;
68858;SDS011;55864;49.238;8.092;2024-03-23T02:48:06;17.77;;;8.18;;
68858;SDS011;55864;49.238;8.092;2024-03-23T02:50:07;15.93;;;7.78;;
68858;SDS011;55864;49.238;8.092;2024-03-23T02:52:08;19.00;;;7.80;;
68858;SDS011;55864;49.238;8.092;2024-03-23T02:54:09;18.27;;;8.02;;
68858;SDS011;55864;49.238;8.092;2024-03-23T02:56:11;17.30;;;8.40;;
68858;SDS011;55864;49.238;8.092;2024-03-23T02:58:11;15.15;;;7.65;;
68858;SDS011;55864;49.238;8.092;2024-03-23T03:00:12;17.90;;;8.40;;
68858;SDS011;55864;49.238;8.092;2024-03-23T03:02:13;17.95;;;8.15;;
68858;SDS011;55864;49.238;8.092;2024-03-23T03:04:14;17.48;;;8.27;;
68858;SDS011;55864;49.238;8.092;2024-03-23T03:06:22;18.33;;;9.15;;
68858;SDS011;55864;49.238;8.092;2024-03-23T03:08:23;19.08;;;8.93;;
68858;SDS011;55864;49.238;8.092;2024-03-23T03:10:23;17.35;;;8.50;;
68858;SDS011;55864;49.238;8.092;2024-03-23T03:12:25;18.60;;;8.60;;
68858;SDS011;55864;49.238;8.092;2024-03-23T03:14:26;17.17;;;8.85;;
68858;SDS011;55864;49.238;8.092;2024-03-23T03:16:26;26.05;;;9.35;;
68858;SDS011;55864;49.238;8.092;2024-03-23T03:18:27;19.67;;;8.75;;
68858;SDS011;55864;49.238;8.092;2024-03-23T03:20:27;20.20;;;9.60;;
68858;SDS011;55864;49.238;8.092;2024-03-23T03:22:28;22.45;;;9.35;;
68858;SDS011;55864;49.238;8.092;2024-03-23T03:24:28;24.67;;;11.00;;
68858;SDS011;55864;49.238;8.092;2024-03-23T03:26:29;21.70;;;9.77;;
68858;SDS011;55864;49.238;8.092;2024-03-23T03:28:31;28.55;;;10.45;;
68858;SDS011;55864;49.238;8.092;2024-03-23T03:30:32;26.20;;;11.15;;
68858;SDS011;55864;49.238;8.092;2024-03-23T03:32:33;23.98;;;11.10;;
68858;SDS011;55864;49.238;8.092;2024-03-23T03:34:33;25.20;;;10.77;;
68858;SDS011;55864;49.238;8.092;2024-03-23T03:36:34;25.73;;;10.48;;
68858;SDS011;55864;49.238;8.092;2024-03-23T03:38:34;26.27;;;10.70;;
68858;SDS011;55864;49.238;8.092;2024-03-23T03:40:35;24.20;;;10.82;;
68858;SDS011;55864;49.238;8.092;2024-03-23T03:42:36;21.88;;;10.35;;
68858;SDS011;55864;49.238;8.092;2024-03-23T03:44:38;24.17;;;10.13;;
68858;SDS011;55864;49.238;8.092;2024-03-23T03:46:38;23.48;;;9.73;;
68858;SDS011;55864;49.238;8.092;2024-03-23T03:48:39;19.17;;;8.48;;
68858;SDS011;55864;49.238;8.092;2024-03-23T03:50:39;19.27;;;8.63;;
68858;SDS011;55864;49.238;8.092;2024-03-23T03:52:40;20.83;;;7.88;;
68858;SDS011;55864;49.238;8.092;2024-03-23T03:54:40;27.63;;;7.88;;
68858;SDS011;55864;49.238;8.092;2024-03-23T03:56:41;17.75;;;7.13;;
68858;SDS011;55864;49.238;8.092;2024-03-23T03:58:41;15.38;;;7.22;;
68858;SDS011;55864;49.238;8.092;2024-03-23T04:00:43;15.05;;;7.38;;
68858;SDS011;55864;49.238;8.092;2024-03-23T04:02:44;18.30;;;7.47;;
68858;SDS011;55864;49.238;8.092;2024-03-23T04:04:44;16.08;;;7.30;;
68858;SDS011;55864;49.238;8.092;2024-03-23T04:06:45;16.65;;;6.90;;
68858;SDS011;55864;49.238;8.092;2024-03-23T04:08:46;14.88;;;6.93;;
68858;SDS011;55864;49.238;8.092;2024-03-23T04:10:46;14.75;;;6.95;;
68858;SDS011;55864;49.238;8.092;2024-03-23T04:12:47;13.80;;;6.68;;
68858;SDS011;55864;49.238;8.092;2024-03-23T04:14:48;13.70;;;6.60;;
68858;SDS011;55864;49.238;8.092;2024-03-23T04:16:50;18.30;;;7.03;;
68858;SDS011;55864;49.238;8.092;2024-03-23T04:18:50;14.80;;;6.63;;
68858;SDS011;55864;49.238;8.092;2024-03-23T04:20:51;16.30;;;6.60;;
68858;SDS011;55864;49.238;8.092;2024-03-23T04:22:52;13.02;;;6.03;;
68858;SDS011;55864;49.238;8.092;2024-03-23T04:24:52;12.70;;;5.90;;
68858;SDS011;55864;49.238;8.092;2024-03-23T04:26:53;12.50;;;5.80;;
68858;SDS011;55864;49.238;8.092;2024-03-23T04:28:53;13.23;;;5.60;;
68858;SDS011;55864;49.238;8.092;2024-03-23T04:30:54;12.57;;;5.20;;
68858;SDS011;55864;49.238;8.092;2024-03-23T04:32:56;12.57;;;5.28;;
68858;SDS011;55864;49.238;8.092;2024-03-23T04:34:56;9.82;;;4.40;;
68858;SDS011;55864;49.238;8.092;2024-03-23T04:36:57;11.40;;;4.40;;
68858;SDS011;55864;49.238;8.092;2024-03-23T04:38:58;8.15;;;3.95;;
68858;SDS011;55864;49.238;8.092;2024-03-23T04:41:00;8.80;;;4.07;;
68858;SDS011;55864;49.238;8.092;2024-03-23T04:43:00;10.80;;;4.07;;
68858;SDS011;55864;49.238;8.092;2024-03-23T04:45:01;8.57;;;3.77;;
68858;SDS011;55864;49.238;8.092;2024-03-23T04:47:01;8.63;;;3.70;;
68858;SDS011;55864;49.238;8.092;2024-03-23T04:49:03;8.25;;;3.58;;
68858;SDS011;55864;49.238;8.092;2024-03-23T04:51:04;7.40;;;3.30;;
68858;SDS011;55864;49.238;8.092;2024-03-23T04:53:04;8.07;;;3.47;;
68858;SDS011;55864;49.238;8.092;2024-03-23T04:55:05;7.78;;;3.35;;
68858;SDS011;55864;49.238;8.092;2024-03-23T04:57:06;7.20;;;3.08;;
68858;SDS011;55864;49.238;8.092;2024-03-23T04:59:06;6.68;;;2.95;;
68858;SDS011;55864;49.238;8.092;2024-03-23T05:01:07;7.53;;;3.50;;
68858;SDS011;55864;49.238;8.092;2024-03-23T05:03:07;7.13;;;3.13;;
68858;SDS011;55864;49.238;8.092;2024-03-23T05:05:09;7.97;;;2.95;;
68858;SDS011;55864;49.238;8.092;2024-03-23T05:07:10;5.68;;;2.45;;
68858;SDS011;55864;49.238;8.092;2024-03-23T05:09:10;5.90;;;2.53;;
68858;SDS011;55864;49.238;8.092;2024-03-23T05:11:11;5.43;;;2.20;;
68858;SDS011;55864;49.238;8.092;2024-03-23T05:13:11;5.88;;;2.30;;
68858;SDS011;55864;49.238;8.092;2024-03-23T05:15:12;5.22;;;2.03;;
68858;SDS011;55864;49.238;8.092;2024-03-23T05:17:13;5.43;;;2.30;;
68858;SDS011;55864;49.238;8.092;2024-03-23T05:19:13;5.37;;;2.20;;
68858;SDS011;55864;49.238;8.092;2024-03-23T05:21:15;5.20;;;2.20;;
68858;SDS011;55864;49.238;8.092;2024-03-23T05:23:16;4.70;;;2.03;;
68858;SDS011;55864;49.238;8.092;2024-03-23T05:25:16;4.88;;;2.17;;
68858;SDS011;55864;49.238;8.092;2024-03-23T05:27:17;4.78;;;2.10;;
68858;SDS011;55864;49.238;8.092;2024-03-23T05:29:17;4.63;;;1.90;;
68858;SDS011;55864;49.238;8.092;2024-03-23T05:31:24;5.27;;;2.00;;
68858;SDS011;55864;49.238;8.092;2024-03-23T05:33:24;5.23;;;2.30;;
68858;SDS011;55864;49.238;8.092;2024-03-23T05:35:25;7.67;;;2.20;;
68858;SDS011;55864;49.238;8.092;2024-03-23T05:37:27;4.90;;;1.80;;
68858;SDS011;55864;49.238;8.092;2024-03-23T05:39:28;5.60;;;2.10;;
68858;SDS011;55864;49.238;8.092;2024-03-23T05:41:28;4.70;;;1.73;;
68858;SDS011;55864;49.238;8.092;2024-03-23T05:43:29;5.60;;;1.60;;
68858;SDS011;55864;49.238;8.092;2024-03-23T05:45:29;3.23;;;1.50;;
68858;SDS011;55864;49.238;8.092;2024-03-23T05:47:30;4.93;;;1.60;;
68858;SDS011;55864;49.238;8.092;2024-03-23T05:49:31;3.80;;;1.50;;
68858;SDS011;55864;49.238;8.092;2024-03-23T05:51:31;3.87;;;1.20;;
68858;SDS011;55864;49.238;8.092;2024-03-23T05:53:34;2.80;;;1.23;;
68858;SDS011;55864;49.238;8.092;2024-03-23T05:55:35;2.92;;;1.48;;
68858;SDS011;55864;49.238;8.092;2024-03-23T05:57:35;3.20;;;1.20;;
68858;SDS011;55864;49.238;8.092;2024-03-23T05:59:36;2.93;;;1.27;;
68858;SDS011;55864;49.238;8.092;2024-03-23T06:01:36;3.07;;;1.40;;
68858;SDS011;55864;49.238;8.092;2024-03-23T06:03:37;3.50;;;1.30;;
68858;SDS011;55864;49.238;8.092;2024-03-23T06:05:37;2.10;;;1.07;;
68858;SDS011;55864;49.238;8.092;2024-03-23T06:07:38;3.17;;;1.10;;
68858;SDS011;55864;49.238;8.092;2024-03-23T06:09:40;2.67;;;1.20;;
68858;SDS011;55864;49.238;8.092;2024-03-23T06:11:41;2.23;;;1.10;;
68858;SDS011;55864;49.238;8.092;2024-03-23T06:13:41;1.87;;;1.00;;
68858;SDS011;55864;49.238;8.092;2024-03-23T06:15:42;1.97;;;1.00;;
68858;SDS011;55864;49.238;8.092;2024-03-23T06:17:43;1.70;;;0.90;;
68858;SDS011;55864;49.238;8.092;2024-03-23T06:19:43;1.27;;;0.90;;
68858;SDS011;55864;49.238;8.092;2024-03-23T06:21:44;2.23;;;1.00;;
68858;SDS011;55864;49.238;8.092;2024-03-23T06:23:44;2.73;;;1.00;;
68858;SDS011;55864;49.238;8.092;2024-03-23T06:25:46;1.63;;;1.03;;
68858;SDS011;55864;49.238;8.092;2024-03-23T06:27:47;3.90;;;1.10;;
68858;SDS011;55864;49.238;8.092;2024-03-23T06:29:47;1.00;;;0.90;;
68858;SDS011;55864;49.238;8.092;2024-03-23T06:31:52;1.23;;;0.97;;
68858;SDS011;55864;49.238;8.092;2024-03-23T06:33:54;0.83;;;0.80;;
68858;SDS011;55864;49.238;8.092;2024-03-23T06:35:55;1.43;;;1.00;;
68858;SDS011;55864;49.238;8.092;2024-03-23T06:37:56;1.87;;;1.00;;
68858;SDS011;55864;49.238;8.092;2024-03-23T06:39:56;3.10;;;0.90;;
68858;SDS011;55864;49.238;8.092;2024-03-23T06:41:58;1.43;;;1.00;;
68858;SDS011;55864;49.238;8.092;2024-03-23T06:43:58;2.00;;;1.20;;
68858;SDS011;55864;49.238;8.092;2024-03-23T06:45:59;1.30;;;0.90;;
68858;SDS011;55864;49.238;8.092;2024-03-23T06:48:00;1.47;;;1.10;;
68858;SDS011;55864;49.238;8.092;2024-03-23T06:50:00;1.47;;;0.90;;
68858;SDS011;55864;49.238;8.092;2024-03-23T06:52:01;1.40;;;1.00;;
68858;SDS011;55864;49.238;8.092;2024-03-23T06:54:02;1.57;;;0.93;;
68858;SDS011;55864;49.238;8.092;2024-03-23T06:56:03;2.07;;;1.03;;
68858;SDS011;55864;49.238;8.092;2024-03-23T06:58:05;1.80;;;1.00;;
68858;SDS011;55864;49.238;8.092;2024-03-23T07:00:06;2.43;;;1.00;;
68858;SDS011;55864;49.238;8.092;2024-03-23T07:02:07;1.60;;;0.90;;
68858;SDS011;55864;49.238;8.092;2024-03-23T07:04:08;2.07;;;1.10;;
68858;SDS011;55864;49.238;8.092;2024-03-23T07:06:09;2.07;;;1.00;;
68858;SDS011;55864;49.238;8.092;2024-03-23T07:08:10;2.60;;;1.07;;
68858;SDS011;55864;49.238;8.092;2024-03-23T07:10:10;3.17;;;1.20;;
68858;SDS011;55864;49.238;8.092;2024-03-23T07:12:11;3.07;;;1.30;;
68858;SDS011;55864;49.238;8.092;2024-03-23T07:14:12;3.30;;;1.20;;
68858;SDS011;55864;49.238;8.092;2024-03-23T07:16:13;2.67;;;1.20;;
68858;SDS011;55864;49.238;8.092;2024-03-23T07:18:14;6.67;;;1.60;;
68858;SDS011;55864;49.238;8.092;2024-03-23T07:20:14;3.67;;;1.40;;
68858;SDS011;55864;49.238;8.092;2024-03-23T07:22:15;3.87;;;1.40;;
68858;SDS011;55864;49.238;8.092;2024-03-23T07:24:15;7.30;;;1.50;;
68858;SDS011;55864;49.238;8.092;2024-03-23T07:26:16;5.57;;;1.80;;
68858;SDS011;55864;49.238;8.092;2024-03-23T07:28:16;6.70;;;1.40;;
68858;SDS011;55864;49.238;8.092;2024-03-23T07:30:18;6.27;;;1.60;;
68858;SDS011;55864;49.238;8.092;2024-03-23T07:32:19;7.43;;;1.63;;
68858;SDS011;55864;49.238;8.092;2024-03-23T07:34:19;6.97;;;1.70;;
68858;SDS011;55864;49.238;8.092;2024-03-23T07:36:20;6.03;;;2.10;;
68858;SDS011;55864;49.238;8.092;2024-03-23T07:38:20;6.93;;;2.07;;
68858;SDS011;55864;49.238;8.092;2024-03-23T07:40:21;9.50;;;2.33;;
68858;SDS011;55864;49.238;8.092;2024-03-23T07:42:21;7.83;;;1.87;;
68858;SDS011;55864;49.238;8.092;2024-03-23T07:44:22;5.90;;;2.40;;
68858;SDS011;55864;49.238;8.092;2024-03-23T07:46:24;8.07;;;2.13;;
68858;SDS011;55864;49.238;8.092;2024-03-23T07:48:24;9.60;;;2.27;;
68858;SDS011;55864;49.238;8.092;2024-03-23T07:50:25;8.00;;;2.50;;
68858;SDS011;55864;49.238;8.092;2024-03-23T07:52:27;6.17;;;2.30;;
68858;SDS011;55864;49.238;8.092;2024-03-23T07:54:28;7.77;;;2.20;;
68858;SDS011;55864;49.238;8.092;2024-03-23T07:56:29;8.40;;;2.30;;
68858;SDS011;55864;49.238;8.092;2024-03-23T07:58:29;12.43;;;2.70;;
68858;SDS011;55864;49.238;8.092;2024-03-23T08:00:30;8.70;;;2.60;;
68858;SDS011;55864;49.238;8.092;2024-03-23T08:02:32;8.13;;;2.80;;
68858;SDS011;55864;49.238;8.092;2024-03-23T08:04:32;8.47;;;2.50;;
68858;SDS011;55864;49.238;8.092;2024-03-23T08:06:33;7.33;;;2.50;;
68858;SDS011;55864;49.238;8.092;2024-03-23T08:08:33;9.20;;;2.20;;
68858;SDS011;55864;49.238;8.092;2024-03-23T08:10:34;9.80;;;2.80;;
68858;SDS011;55864;49.238;8.092;2024-03-23T08:12:34;6.70;;;2.20;;
68858;SDS011;55864;49.238;8.092;2024-03-23T08:14:35;11.50;;;2.70;;
68858;SDS011;55864;49.238;8.092;2024-03-23T08:16:35;10.63;;;2.90;;
68858;SDS011;55864;49.238;8.092;2024-03-23T08:18:37;9.45;;;2.58;;
68858;SDS011;55864;49.238;8.092;2024-03-23T08:20:38;8.85;;;2.30;;
68858;SDS011;55864;49.238;8.092;2024-03-23T08:22:38;8.52;;;2.25;;
68858;SDS011;55864;49.238;8.092;2024-03-23T08:24:39;7.03;;;2.45;;
68858;SDS011;55864;49.238;8.092;2024-03-23T08:26:40;8.32;;;2.28;;
68858;SDS011;55864;49.238;8.092;2024-03-23T08:28:40;7.45;;;2.25;;
68858;SDS011;55864;49.238;8.092;2024-03-23T08:30:41;8.75;;;2.85;;
68858;SDS011;55864;49.238;8.092;2024-03-23T08:32:41;10.60;;;2.95;;
68858;SDS011;55864;49.238;8.092;2024-03-23T08:34:43;9.02;;;2.60;;
68858;SDS011;55864;49.238;8.092;2024-03-23T08:36:44;7.50;;;2.28;;
68858;SDS011;55864;49.238;8.092;2024-03-23T08:38:44;6.78;;;2.35;;
68858;SDS011;55864;49.238;8.092;2024-03-23T08:40:46;7.18;;;2.30;;
68858;SDS011;55864;49.238;8.092;2024-03-23T08:42:46;8.77;;;2.45;;
68858;SDS011;55864;49.238;8.092;2024-03-23T08:44:47;7.93;;;2.40;;
68858;SDS011;55864;49.238;8.092;2024-03-23T08:46:47;8.43;;;2.47;;
68858;SDS011;55864;49.238;8.092;2024-03-23T08:48:48;8.05;;;2.33;;
68858;SDS011;55864;49.238;8.092;2024-03-23T08:50:59;12.55;;;3.33;;
68858;SDS011;55864;49.238;8.092;2024-03-23T08:53:00;9.55;;;2.75;;
68858;SDS011;55864;49.238;8.092;2024-03-23T08:55:00;8.82;;;2.63;;
68858;SDS011;55864;49.238;8.092;2024-03-23T08:57:01;12.30;;;2.58;;
68858;SDS011;55864;49.238;8.092;2024-03-23T08:59:01;9.50;;;2.90;;
68858;SDS011;55864;49.238;8.092;2024-03-23T09:01:02;11.30;;;3.55;;
68858;SDS011;55864;49.238;8.092;2024-03-23T09:03:04;11.75;;;2.83;;
68858;SDS011;55864;49.238;8.092;2024-03-23T09:05:05;9.50;;;2.38;;
68858;SDS011;55864;49.238;8.092;2024-03-23T09:07:07;12.52;;;2.35;;
68858;SDS011;55864;49.238;8.092;2024-03-23T09:09:07;9.40;;;2.70;;
68858;SDS011;55864;49.238;8.092;2024-03-23T09:11:09;9.20;;;2.80;;
68858;SDS011;55864;49.238;8.092;2024-03-23T09:13:10;9.52;;;2.90;;
68858;SDS011;55864;49.238;8.092;2024-03-23T09:15:11;7.80;;;2.58;;
68858;SDS011;55864;49.238;8.092;2024-03-23T09:17:11;10.45;;;2.97;;
68858;SDS011;55864;49.238;8.092;2024-03-23T09:19:12;11.05;;;2.70;;
68858;SDS011;55864;49.238;8.092;2024-03-23T09:21:12;11.32;;;2.97;;
68858;SDS011;55864;49.238;8.092;2024-03-23T09:23:14;9.65;;;2.90;;
68858;SDS011;55864;49.238;8.092;2024-03-23T09:25:15;10.60;;;3.00;;
68858;SDS011;55864;49.238;8.092;2024-03-23T09:27:15;8.40;;;2.57;;
68858;SDS011;55864;49.238;8.092;2024-03-23T09:29:16;10.03;;;2.57;;
68858;SDS011;55864;49.238;8.092;2024-03-23T09:31:17;10.97;;;2.67;;
68858;SDS011;55864;49.238;8.092;2024-03-23T09:33:17;8.60;;;2.50;;
68858;SDS011;55864;49.238;8.092;2024-03-23T09:35:18;11.90;;;2.57;;
68858;SDS011;55864;49.238;8.092;2024-03-23T09:37:18;9.93;;;2.88;;
68858;SDS011;55864;49.238;8.092;2024-03-23T09:39:20;8.25;;;2.55;;
68858;SDS011;55864;49.238;8.092;2024-03-23T09:41:21;11.20;;;2.40;;
68858;SDS011;55864;49.238;8.092;2024-03-23T09:43:21;8.52;;;2.38;;
68858;SDS011;55864;49.238;8.092;2024-03-23T09:45:26;9.80;;;2.67;;
68858;SDS011;55864;49.238;8.092;2024-03-23T09:47:27;8.30;;;2.40;;
68858;SDS011;55864;49.238;8.092;2024-03-23T09:49:28;7.68;;;2.40;;
68858;SDS011;55864;49.238;8.092;2024-03-23T09:51:29;9.90;;;2.97;;
68858;SDS011;55864;49.238;8.092;2024-03-23T09:53:30;11.73;;;2.70;;
68858;SDS011;55864;49.238;8.092;2024-03-23T09:55:33;14.30;;;3.33;;
68858;SDS011;55864;49.238;8.092;2024-03-23T09:57:33;9.03;;;2.93;;
68858;SDS011;55864;49.238;8.092;2024-03-23T09:59:34;9.00;;;3.27;;
68858;SDS011;55864;49.238;8.092;2024-03-23T10:01:34;7.97;;;2.80;;
68858;SDS011;55864;49.238;8.092;2024-03-23T10:03:41;11.13;;;3.00;;
68858;SDS011;55864;49.238;8.092;2024-03-23T10:05:43;10.90;;;3.13;;
68858;SDS011;55864;49.238;8.092;2024-03-23T10:07:43;8.70;;;2.90;;
68858;SDS011;55864;49.238;8.092;2024-03-23T10:09:44;7.40;;;2.57;;
68858;SDS011;55864;49.238;8.092;2024-03-23T10:11:46;9.82;;;2.95;;
68858;SDS011;55864;49.238;8.092;2024-03-23T10:13:47;9.30;;;2.67;;
68858;SDS011;55864;49.238;8.092;2024-03-23T10:15:48;11.00;;;2.70;;
68858;SDS011;55864;49.238;8.092;2024-03-23T10:17:55;8.83;;;2.57;;
68858;SDS011;55864;49.238;8.092;2024-03-23T10:19:56;11.20;;;2.83;;
68858;SDS011;55864;49.238;8.092;2024-03-23T10:21:57;15.65;;;4.13;;
68858;SDS011;55864;49.238;8.092;2024-03-23T10:23:58;8.18;;;2.78;;
68858;SDS011;55864;49.238;8.092;2024-03-23T10:26:15;10.60;;;2.60;;
68858;SDS011;55864;49.238;8.092;2024-03-23T10:28:18;9.32;;;2.47;;
68858;SDS011;55864;49.238;8.092;2024-03-23T10:30:19;8.77;;;2.42;;
68858;SDS011;55864;49.238;8.092;2024-03-23T10:32:21;7.87;;;2.53;;
68858;SDS011;55864;49.238;8.092;2024-03-23T10:34:25;7.68;;;2.25;;
68858;SDS011;55864;49.238;8.092;2024-03-23T10:38:26;11.68;;;2.28;;
68858;SDS011;55864;49.238;8.092;2024-03-23T10:40:27;8.95;;;2.40;;
68858;SDS011;55864;49.238;8.092;2024-03-23T10:42:29;10.88;;;2.20;;
68858;SDS011;55864;49.238;8.092;2024-03-23T10:44:32;10.98;;;2.17;;
68858;SDS011;55864;49.238;8.092;2024-03-23T10:46:32;10.05;;;1.90;;
68858;SDS011;55864;49.238;8.092;2024-03-23T10:48:33;8.88;;;2.30;;
68858;SDS011;55864;49.238;8.092;2024-03-23T10:50:34;6.30;;;2.53;;
68858;SDS011;55864;49.238;8.092;2024-03-23T10:52:34;7.53;;;2.10;;
68858;SDS011;55864;49.238;8.092;2024-03-23T10:54:35;7.22;;;2.00;;
68858;SDS011;55864;49.238;8.092;2024-03-23T10:56:37;10.45;;;2.30;;
68858;SDS011;55864;49.238;8.092;2024-03-23T10:58:40;8.95;;;2.67;;
68858;SDS011;55864;49.238;8.092;2024-03-23T11:02:45;6.38;;;1.67;;
68858;SDS011;55864;49.238;8.092;2024-03-23T11:04:45;9.77;;;2.13;;
68858;SDS011;55864;49.238;8.092;2024-03-23T11:06:46;7.18;;;1.92;;
68858;SDS011;55864;49.238;8.092;2024-03-23T11:08:46;9.30;;;2.10;;
68858;SDS011;55864;49.238;8.092;2024-03-23T11:10:47;5.80;;;2.10;;
68858;SDS011;55864;49.238;8.092;2024-03-23T11:12:48;8.02;;;1.90;;
68858;SDS011;55864;49.238;8.092;2024-03-23T11:14:48;6.88;;;1.90;;
68858;SDS011;55864;49.238;8.092;2024-03-23T11:16:57;8.65;;;1.98;;
68858;SDS011;55864;49.238;8.092;2024-03-23T11:23:52;6.68;;;2.10;;
68858;SDS011;55864;49.238;8.092;2024-03-23T11:25:53;7.85;;;2.63;;
68858;SDS011;55864;49.238;8.092;2024-03-23T11:27:53;10.77;;;2.85;;
68858;SDS011;55864;49.238;8.092;2024-03-23T11:29:57;9.43;;;2.60;;
68858;SDS011;55864;49.238;8.092;2024-03-23T11:32:11;11.32;;;2.95;;
68858;SDS011;55864;49.238;8.092;2024-03-23T11:34:12;11.15;;;3.25;;
68858;SDS011;55864;49.238;8.092;2024-03-23T11:36:18;8.73;;;2.28;;
68858;SDS011;55864;49.238;8.092;2024-03-23T11:38:19;7.43;;;2.20;;
68858;SDS011;55864;49.238;8.092;2024-03-23T11:40:20;9.93;;;2.83;;
68858;SDS011;55864;49.238;8.092;2024-03-23T11:42:21;8.45;;;2.05;;
68858;SDS011;55864;49.238;8.092;2024-03-23T11:44:22;8.40;;;2.42;;
68858;SDS011;55864;49.238;8.092;2024-03-23T11:46:23;8.05;;;2.17;;
68858;SDS011;55864;49.238;8.092;2024-03-23T11:48:25;8.40;;;2.20;;
68858;SDS011;55864;49.238;8.092;2024-03-23T11:50:25;8.25;;;2.20;;
68858;SDS011;55864;49.238;8.092;2024-03-23T11:52:26;5.80;;;2.13;;
68858;SDS011;55864;49.238;8.092;2024-03-23T11:54:27;11.45;;;1.88;;
68858;SDS011;55864;49.238;8.092;2024-03-23T11:56:27;6.38;;;1.50;;
68858;SDS011;55864;49.238;8.092;2024-03-23T11:58:28;7.95;;;1.90;;
68858;SDS011;55864;49.238;8.092;2024-03-23T12:00:28;5.28;;;1.60;;
68858;SDS011;55864;49.238;8.092;2024-03-23T12:02:29;8.85;;;1.85;;
68858;SDS011;55864;49.238;8.092;2024-03-23T12:04:31;4.63;;;1.35;;
68858;SDS011;55864;49.238;8.092;2024-03-23T12:06:31;7.00;;;1.60;;
68858;SDS011;55864;49.238;8.092;2024-03-23T12:08:32;8.13;;;1.80;;
68858;SDS011;55864;49.238;8.092;2024-03-23T12:10:33;7.30;;;1.80;;
68858;SDS011;55864;49.238;8.092;2024-03-23T12:12:34;6.50;;;1.90;;
68858;SDS011;55864;49.238;8.092;2024-03-23T12:14:34;6.38;;;1.90;;
68858;SDS011;55864;49.238;8.092;2024-03-23T12:16:35;7.10;;;2.50;;
68858;SDS011;55864;49.238;8.092;2024-03-23T12:18:35;6.77;;;1.90;;
68858;SDS011;55864;49.238;8.092;2024-03-23T12:20:38;7.38;;;1.90;;
68858;SDS011;55864;49.238;8.092;2024-03-23T12:22:39;6.60;;;1.90;;
68858;SDS011;55864;49.238;8.092;2024-03-23T12:24:40;6.50;;;1.83;;
68858;SDS011;55864;49.238;8.092;2024-03-23T12:26:40;8.63;;;1.75;;
68858;SDS011;55864;49.238;8.092;2024-03-23T12:28:41;8.40;;;1.98;;
68858;SDS011;55864;49.238;8.092;2024-03-23T12:30:41;6.13;;;2.00;;
68858;SDS011;55864;49.238;8.092;2024-03-23T12:32:42;7.63;;;1.70;;
68858;SDS011;55864;49.238;8.092;2024-03-23T12:34:42;9.83;;;1.90;;
68858;SDS011;55864;49.238;8.092;2024-03-23T12:36:44;7.50;;;1.80;;
68858;SDS011;55864;49.238;8.092;2024-03-23T12:38:44;7.10;;;2.00;;
68858;SDS011;55864;49.238;8.092;2024-03-23T12:40:46;5.83;;;1.70;;
68858;SDS011;55864;49.238;8.092;2024-03-23T12:42:46;6.53;;;1.77;;
68858;SDS011;55864;49.238;8.092;2024-03-23T12:44:47;6.43;;;1.80;;
68858;SDS011;55864;49.238;8.092;2024-03-23T12:46:47;8.37;;;1.70;;
68858;SDS011;55864;49.238;8.092;2024-03-23T12:48:48;7.10;;;1.60;;
68858;SDS011;55864;49.238;8.092;2024-03-23T12:50:48;7.13;;;1.70;;
68858;SDS011;55864;49.238;8.092;2024-03-23T12:52:50;5.23;;;1.60;;
68858;SDS011;55864;49.238;8.092;2024-03-23T12:54:51;5.30;;;1.50;;
68858;SDS011;55864;49.238;8.092;2024-03-23T12:56:51;5.93;;;1.60;;
68858;SDS011;55864;49.238;8.092;2024-03-23T12:58:52;6.03;;;1.33;;
68858;SDS011;55864;49.238;8.092;2024-03-23T13:00:52;6.63;;;1.50;;
68858;SDS011;55864;49.238;8.092;2024-03-23T13:02:53;4.67;;;1.37;;
68858;SDS011;55864;49.238;8.092;2024-03-23T13:04:53;3.73;;;1.50;;
68858;SDS011;55864;49.238;8.092;2024-03-23T13:06:54;5.70;;;1.60;;
68858;SDS011;55864;49.238;8.092;2024-03-23T13:08:56;4.60;;;1.30;;